createdAt,value
2018-08-04T00:01:58.906Z,18.9
2018-08-04T00:07:01.133Z,18.9
2018-08-04T00:12:03.306Z,18.9
2018-08-04T00:17:05.714Z,18.799999
2018-08-04T00:22:08.007Z,18.799999
2018-08-04T00:27:10.158Z,18.799999
2018-08-04T00:32:12.574Z,18.799999
2018-08-04T00:37:14.948Z,18.799999
2018-08-04T00:42:17.153Z,18.700001
2018-08-04T00:47:19.509Z,18.6
2018-08-04T00:52:21.608Z,18.6
2018-08-04T00:57:23.897Z,18.5
2018-08-04T01:02:26.244Z,18.5
2018-08-04T01:07:28.531Z,18.5
2018-08-04T01:12:30.979Z,18.6
2018-08-04T01:17:33.382Z,18.5
2018-08-04T01:22:35.549Z,18.5
2018-08-04T01:27:37.774Z,18.4
2018-08-04T01:32:40.084Z,18.4
2018-08-04T01:37:42.356Z,18.4
2018-08-04T01:42:44.693Z,18.5
2018-08-04T01:47:47.179Z,18.6
2018-08-04T01:52:49.165Z,18.6
2018-08-04T01:57:51.513Z,18.700001
2018-08-04T02:08:05.131Z,18.9
2018-08-04T02:13:07.292Z,18.9
2018-08-04T02:18:09.594Z,19
2018-08-04T02:23:11.883Z,18.9
2018-08-04T02:28:14.123Z,19
2018-08-04T02:33:16.532Z,18.9
2018-08-04T02:38:18.778Z,18.799999
2018-08-04T02:43:21.027Z,18.799999
2018-08-04T02:48:23.482Z,18.799999
2018-08-04T02:53:25.656Z,18.700001
2018-08-04T02:58:27.942Z,18.6
2018-08-04T03:03:30.154Z,18.6
2018-08-04T03:08:32.608Z,18.6
2018-08-04T03:13:34.813Z,18.6
2018-08-04T03:18:37.183Z,18.6
2018-08-04T03:23:39.346Z,18.5
2018-08-04T03:28:41.731Z,18.4
2018-08-04T03:33:44.031Z,18.4
2018-08-04T03:38:46.360Z,18.299999
2018-08-04T03:43:48.690Z,18.200001
2018-08-04T03:48:50.843Z,18.200001
2018-08-04T03:53:53.149Z,18.200001
2018-08-04T03:58:55.486Z,18.1
2018-08-04T04:03:57.676Z,18.1
2018-08-04T04:09:00.099Z,18
2018-08-04T04:14:02.252Z,17.9
2018-08-04T04:19:04.668Z,17.799999
2018-08-04T04:24:06.884Z,17.799999
2018-08-04T04:29:09.404Z,17.799999
2018-08-04T04:34:11.637Z,17.700001
2018-08-04T04:39:13.791Z,17.700001
2018-08-04T04:44:16.074Z,17.700001
2018-08-04T04:49:18.366Z,17.700001
2018-08-04T04:54:20.940Z,17.6
2018-08-04T04:59:22.982Z,17.6
2018-08-04T05:04:25.273Z,17.6
2018-08-04T05:09:27.532Z,17.700001
2018-08-04T05:14:29.825Z,17.6
2018-08-04T05:19:32.211Z,17.6
2018-08-04T05:24:34.581Z,17.700001
2018-08-04T05:29:36.692Z,17.799999
2018-08-04T05:34:39.080Z,18
2018-08-04T05:39:41.366Z,18.1
2018-08-04T05:49:45.941Z,18.4
2018-08-04T05:54:48.144Z,18.5
2018-08-04T05:59:50.642Z,18.6
2018-08-04T06:04:52.745Z,18.700001
2018-08-04T06:09:55.101Z,18.9
2018-08-04T06:14:57.396Z,19.1
2018-08-04T06:19:59.712Z,19.4
2018-08-04T06:25:02.017Z,19.799999
2018-08-04T06:30:04.244Z,20.299999
2018-08-04T06:35:06.722Z,20.9
2018-08-04T06:40:08.933Z,21.4
2018-08-04T06:45:11.185Z,21.9
2018-08-04T06:50:13.521Z,22.4
2018-08-04T06:55:15.785Z,22.9
2018-08-04T07:00:18.173Z,23.299999
2018-08-04T07:05:20.422Z,23.799999
2018-08-04T07:10:22.716Z,24.200001
2018-08-04T07:15:24.893Z,24.6
2018-08-04T07:20:27.233Z,24.9
2018-08-04T07:25:29.514Z,25.299999
2018-08-04T07:30:32.086Z,25.6
2018-08-04T07:35:34.173Z,26.1
2018-08-04T07:40:36.337Z,26.4
2018-08-04T07:45:38.790Z,26.799999
2018-08-04T07:50:40.989Z,27.1
2018-08-04T07:55:43.274Z,27.299999
2018-08-04T08:00:45.593Z,27.700001
2018-08-04T08:05:47.834Z,28.1
2018-08-04T08:10:50.248Z,28.4
2018-08-04T08:15:52.489Z,28.6
2018-08-04T08:20:54.765Z,28.799999
2018-08-04T08:25:57.071Z,29.299999
2018-08-04T08:30:59.313Z,29.6
2018-08-04T08:36:01.793Z,30
2018-08-04T08:41:03.877Z,30.200001
2018-08-04T08:51:08.599Z,30.700001
2018-08-04T08:56:10.974Z,31.200001
2018-08-04T09:01:13.476Z,31.200001
2018-08-04T09:06:15.358Z,31.5
2018-08-04T09:11:17.694Z,31.700001
2018-08-04T09:16:19.956Z,31.9
2018-08-04T09:21:22.365Z,32
2018-08-04T09:26:24.593Z,32.099998
2018-08-04T09:31:26.892Z,32.099998
2018-08-04T09:36:29.128Z,32.900002
2018-08-04T09:41:31.507Z,32.900002
2018-08-04T09:46:33.745Z,33.400002
2018-08-04T09:51:35.982Z,33.099998
2018-08-04T09:56:38.454Z,33.400002
2018-08-04T10:01:40.654Z,33.599998
2018-08-04T10:06:42.894Z,33.700001
2018-08-04T10:11:45.209Z,34.200001
2018-08-04T10:16:47.560Z,34.5
2018-08-04T10:21:49.777Z,34.400002
2018-08-04T10:26:52.066Z,34.5
2018-08-04T10:31:54.439Z,34.5
2018-08-04T10:36:56.716Z,35
2018-08-04T10:41:59.079Z,35.599998
2018-08-04T10:47:01.298Z,35.599998
2018-08-04T10:52:03.630Z,35.599998
2018-08-04T10:57:06.046Z,35.900002
2018-08-04T11:02:08.192Z,35.599998
2018-08-04T11:07:10.512Z,35.700001
2018-08-04T11:12:12.707Z,35.900002
2018-08-04T11:17:15.099Z,36.799999
2018-08-04T11:22:17.355Z,36.799999
2018-08-04T11:27:19.653Z,36
2018-08-04T11:32:21.953Z,35.799999
2018-08-04T11:37:24.250Z,36.700001
2018-08-04T11:42:26.631Z,37.5
2018-08-04T11:47:28.818Z,37.599998
2018-08-04T11:52:31.213Z,38.299999
2018-08-04T11:57:33.508Z,38
2018-08-04T12:02:35.766Z,38.400002
2018-08-04T12:07:38.012Z,38.599998
2018-08-04T12:12:40.340Z,38.099998
2018-08-04T12:17:42.587Z,37.799999
2018-08-04T12:22:44.856Z,38.599998
2018-08-04T12:27:47.160Z,39
2018-08-04T12:32:49.477Z,39.099998
2018-08-04T12:37:51.865Z,39.299999
2018-08-04T12:42:54.004Z,39.599998
2018-08-04T12:47:56.357Z,38.5
2018-08-04T12:52:58.724Z,39
2018-08-04T12:58:00.946Z,38.799999
2018-08-04T13:03:03.254Z,39.200001
2018-08-04T13:08:05.558Z,39
2018-08-04T13:13:07.851Z,39.299999
2018-08-04T13:18:10.182Z,39
2018-08-04T13:23:12.406Z,39
2018-08-04T13:28:14.767Z,39
2018-08-04T13:33:17.021Z,38.900002
2018-08-04T13:38:19.234Z,38.099998
2018-08-04T13:43:21.612Z,38.099998
2018-08-04T13:48:24.012Z,38.299999
2018-08-04T13:53:26.159Z,38.200001
2018-08-04T13:58:28.440Z,38.099998
2018-08-04T14:03:30.838Z,37.700001
2018-08-04T14:08:33.049Z,36.700001
2018-08-04T14:13:35.356Z,37.200001
2018-08-04T14:18:37.750Z,37.599998
2018-08-04T14:23:40.020Z,37.400002
2018-08-04T14:28:42.295Z,37.5
2018-08-04T14:33:44.516Z,37.299999
2018-08-04T14:38:46.917Z,37.299999
2018-08-04T14:43:49.258Z,36.799999
2018-08-04T14:48:51.441Z,36.299999
2018-08-04T14:53:53.711Z,36.400002
2018-08-04T14:58:56.571Z,36.400002
2018-08-04T15:03:58.220Z,35.900002
2018-08-04T15:09:00.693Z,35.200001
2018-08-04T15:14:02.997Z,35.400002
2018-08-04T15:19:05.292Z,35.200001
2018-08-04T15:24:07.548Z,34.900002
2018-08-04T15:29:09.888Z,35.099998
2018-08-04T15:34:12.148Z,34.900002
2018-08-04T15:39:14.523Z,33.700001
2018-08-04T15:44:16.793Z,32.799999
2018-08-04T15:49:18.961Z,31.4
2018-08-04T15:54:21.278Z,30.299999
2018-08-04T15:59:23.569Z,29.9
2018-08-04T16:04:25.946Z,30
2018-08-04T16:09:28.164Z,30.5
2018-08-04T16:14:30.669Z,30.799999
2018-08-04T16:19:32.725Z,30.299999
2018-08-04T16:24:35.070Z,29.799999
2018-08-04T16:29:37.266Z,29.6
2018-08-04T16:34:39.654Z,29.5
2018-08-04T16:39:42.032Z,29.1
2018-08-04T16:44:44.367Z,28.799999
2018-08-04T16:49:46.536Z,28.5
2018-08-04T16:54:48.754Z,28
2018-08-04T16:59:51.160Z,27.9
2018-08-04T17:04:53.383Z,27.700001
2018-08-04T17:09:55.750Z,27.6
2018-08-04T17:14:57.995Z,27.299999
2018-08-04T17:20:00.213Z,27.200001
2018-08-04T17:25:02.568Z,27
2018-08-04T17:30:04.901Z,26.799999
2018-08-04T17:35:07.160Z,26.4
2018-08-04T17:40:09.592Z,26.299999
2018-08-04T17:45:11.774Z,26.299999
2018-08-04T17:50:14.083Z,26.200001
2018-08-04T17:55:16.409Z,26
2018-08-04T18:00:18.533Z,25.9
2018-08-04T18:05:20.970Z,25.6
2018-08-04T18:10:23.304Z,25.299999
2018-08-04T18:15:25.557Z,25.200001
2018-08-04T18:20:28.042Z,24.799999
2018-08-04T18:25:30.212Z,24.4
2018-08-04T18:30:32.372Z,24.1
2018-08-04T18:35:34.657Z,23.799999
2018-08-04T18:45:50.240Z,23.299999
2018-08-04T18:50:52.592Z,23.200001
2018-08-04T18:55:54.871Z,23.1
2018-08-04T19:00:57.167Z,23.1
2018-08-04T19:05:59.422Z,23
2018-08-04T19:11:01.777Z,22.799999
2018-08-04T19:16:04.076Z,22.4
2018-08-04T19:21:06.594Z,22.200001
2018-08-04T19:26:08.655Z,22
2018-08-04T19:31:11.031Z,21.9
2018-08-04T19:36:13.204Z,21.9
2018-08-04T19:41:15.480Z,21.700001
2018-08-04T19:46:17.737Z,21.5
2018-08-04T19:51:20.165Z,21.5
2018-08-04T19:56:22.447Z,21.5
2018-08-04T20:01:24.612Z,21.5
2018-08-04T20:06:27.046Z,21.4
2018-08-04T20:11:29.254Z,21.299999
2018-08-04T20:16:31.502Z,21.200001
2018-08-04T20:21:33.745Z,21
2018-08-04T20:31:39.443Z,20.9
2018-08-04T20:36:41.489Z,20.799999
2018-08-04T20:41:43.791Z,20.6
2018-08-04T20:46:46.185Z,20.5
2018-08-04T20:51:48.436Z,20.299999
2018-08-04T20:56:50.704Z,20.200001
2018-08-04T21:01:53.007Z,20.1
2018-08-04T21:06:55.329Z,20
2018-08-04T21:11:57.503Z,19.9
2018-08-04T21:17:00.049Z,19.799999
2018-08-04T21:22:02.195Z,19.6
2018-08-04T21:27:04.467Z,19.5
2018-08-04T21:32:06.812Z,19.4
2018-08-04T21:37:09.306Z,19.299999
2018-08-04T21:42:11.370Z,19.200001
2018-08-04T21:47:13.664Z,19.200001
2018-08-04T21:52:16.235Z,19.1
2018-08-04T21:57:18.351Z,19
2018-08-04T22:02:20.637Z,18.9
2018-08-04T22:07:22.849Z,18.799999
2018-08-04T22:12:25.215Z,18.6
2018-08-04T22:17:27.440Z,18.4
2018-08-04T22:22:29.677Z,18.4
2018-08-04T22:27:32.227Z,18.4
2018-08-04T22:32:34.315Z,18.299999
2018-08-04T22:37:36.546Z,18.200001
2018-08-04T22:42:38.902Z,18.1
2018-08-04T22:47:41.160Z,18.200001
2018-08-04T22:52:43.529Z,18.299999
2018-08-04T22:57:45.801Z,18.299999
2018-08-04T23:02:48.149Z,18.299999
2018-08-04T23:07:50.284Z,18.299999
2018-08-04T23:12:52.775Z,18.200001
2018-08-04T23:17:54.904Z,18.200001
2018-08-04T23:22:57.278Z,18.299999
2018-08-04T23:27:59.506Z,18.299999
2018-08-04T23:33:01.744Z,18.299999
2018-08-04T23:38:04.254Z,18.299999
2018-08-04T23:43:06.387Z,18.299999
2018-08-04T23:48:08.625Z,18.299999
2018-08-04T23:53:10.955Z,18.200001
2018-08-04T23:58:13.343Z,18.200001
